sensor_id;sensor_type;location;lat;lon;timestamp;P1;durP1;ratioP1;P2;durP2;ratioP2
23720;SDS011;42950;52.134;5.578;2023-06-14T00:01:50;5.93;;;2.70;;
23720;SDS011;42950;52.134;5.578;2023-06-14T00:04:16;4.93;;;2.80;;
23720;SDS011;42950;52.134;5.578;2023-06-14T00:06:42;3.95;;;2.63;;
23720;SDS011;42950;52.134;5.578;2023-06-14T00:09:11;4.40;;;2.72;;
23720;SDS011;42950;52.134;5.578;2023-06-14T00:11:42;7.13;;;2.70;;
23720;SDS011;42950;52.134;5.578;2023-06-14T00:14:08;3.90;;;2.60;;
23720;SDS011;42950;52.134;5.578;2023-06-14T00:16:34;4.78;;;2.92;;
23720;SDS011;42950;52.134;5.578;2023-06-14T00:19:01;11.02;;;2.53;;
23720;SDS011;42950;52.134;5.578;2023-06-14T00:21:30;6.28;;;2.75;;
23720;SDS011;42950;52.134;5.578;2023-06-14T00:23:57;4.25;;;2.88;;
23720;SDS011;42950;52.134;5.578;2023-06-14T00:26:23;12.68;;;3.13;;
23720;SDS011;42950;52.134;5.578;2023-06-14T00:28:49;4.65;;;2.75;;
23720;SDS011;42950;52.134;5.578;2023-06-14T00:31:15;6.28;;;2.78;;
23720;SDS011;42950;52.134;5.578;2023-06-14T00:33:41;5.32;;;2.80;;
23720;SDS011;42950;52.134;5.578;2023-06-14T00:36:07;4.20;;;2.75;;
23720;SDS011;42950;52.134;5.578;2023-06-14T00:38:33;5.18;;;2.85;;
23720;SDS011;42950;52.134;5.578;2023-06-14T00:40:58;5.15;;;2.95;;
23720;SDS011;42950;52.134;5.578;2023-06-14T00:43:24;7.32;;;3.00;;
23720;SDS011;42950;52.134;5.578;2023-06-14T00:45:51;9.38;;;2.85;;
23720;SDS011;42950;52.134;5.578;2023-06-14T00:48:17;5.72;;;2.60;;
23720;SDS011;42950;52.134;5.578;2023-06-14T00:50:44;7.00;;;2.78;;
23720;SDS011;42950;52.134;5.578;2023-06-14T00:53:14;11.60;;;2.75;;
23720;SDS011;42950;52.134;5.578;2023-06-14T00:55:40;6.50;;;2.58;;
23720;SDS011;42950;52.134;5.578;2023-06-14T00:58:07;9.32;;;3.17;;
23720;SDS011;42950;52.134;5.578;2023-06-14T01:00:34;4.03;;;2.50;;
23720;SDS011;42950;52.134;5.578;2023-06-14T01:03:00;8.40;;;2.70;;
23720;SDS011;42950;52.134;5.578;2023-06-14T01:05:26;4.75;;;2.80;;
23720;SDS011;42950;52.134;5.578;2023-06-14T01:11:07;5.82;;;2.47;;
23720;SDS011;42950;52.134;5.578;2023-06-14T01:13:42;3.40;;;2.50;;
23720;SDS011;42950;52.134;5.578;2023-06-14T01:16:10;7.57;;;2.50;;
23720;SDS011;42950;52.134;5.578;2023-06-14T01:18:38;7.60;;;2.58;;
23720;SDS011;42950;52.134;5.578;2023-06-14T01:21:04;5.45;;;3.15;;
23720;SDS011;42950;52.134;5.578;2023-06-14T01:23:31;5.25;;;2.90;;
23720;SDS011;42950;52.134;5.578;2023-06-14T01:25:58;5.85;;;2.58;;
23720;SDS011;42950;52.134;5.578;2023-06-14T01:31:00;7.70;;;2.38;;
23720;SDS011;42950;52.134;5.578;2023-06-14T01:33:29;5.38;;;2.83;;
23720;SDS011;42950;52.134;5.578;2023-06-14T01:35:57;4.50;;;2.55;;
23720;SDS011;42950;52.134;5.578;2023-06-14T01:38:25;5.07;;;2.75;;
23720;SDS011;42950;52.134;5.578;2023-06-14T01:40:51;5.05;;;2.33;;
23720;SDS011;42950;52.134;5.578;2023-06-14T01:43:20;7.97;;;2.80;;
23720;SDS011;42950;52.134;5.578;2023-06-14T01:45:47;6.88;;;2.75;;
23720;SDS011;42950;52.134;5.578;2023-06-14T01:48:15;3.38;;;2.70;;
23720;SDS011;42950;52.134;5.578;2023-06-14T01:50:41;3.92;;;2.22;;
23720;SDS011;42950;52.134;5.578;2023-06-14T01:53:07;5.47;;;2.53;;
23720;SDS011;42950;52.134;5.578;2023-06-14T01:55:33;7.15;;;2.67;;
23720;SDS011;42950;52.134;5.578;2023-06-14T01:58:05;4.80;;;2.90;;
23720;SDS011;42950;52.134;5.578;2023-06-14T02:00:31;5.45;;;2.78;;
23720;SDS011;42950;52.134;5.578;2023-06-14T02:02:57;5.65;;;2.58;;
23720;SDS011;42950;52.134;5.578;2023-06-14T02:05:23;6.68;;;2.72;;
23720;SDS011;42950;52.134;5.578;2023-06-14T02:07:49;8.02;;;2.70;;
23720;SDS011;42950;52.134;5.578;2023-06-14T02:10:15;6.82;;;2.25;;
23720;SDS011;42950;52.134;5.578;2023-06-14T02:12:42;7.63;;;2.80;;
23720;SDS011;42950;52.134;5.578;2023-06-14T02:15:09;4.82;;;2.80;;
23720;SDS011;42950;52.134;5.578;2023-06-14T02:17:42;6.70;;;2.83;;
23720;SDS011;42950;52.134;5.578;2023-06-14T02:20:08;7.00;;;2.85;;
23720;SDS011;42950;52.134;5.578;2023-06-14T02:22:34;4.35;;;2.72;;
23720;SDS011;42950;52.134;5.578;2023-06-14T02:25:00;7.40;;;2.47;;
23720;SDS011;42950;52.134;5.578;2023-06-14T02:27:25;6.38;;;2.47;;
23720;SDS011;42950;52.134;5.578;2023-06-14T02:29:52;9.88;;;2.92;;
23720;SDS011;42950;52.134;5.578;2023-06-14T02:32:19;4.43;;;2.50;;
23720;SDS011;42950;52.134;5.578;2023-06-14T02:34:45;13.45;;;2.72;;
23720;SDS011;42950;52.134;5.578;2023-06-14T02:37:15;7.63;;;2.78;;
23720;SDS011;42950;52.134;5.578;2023-06-14T02:39:43;7.70;;;2.60;;
23720;SDS011;42950;52.134;5.578;2023-06-14T02:42:10;4.75;;;2.70;;
23720;SDS011;42950;52.134;5.578;2023-06-14T02:44:35;4.72;;;2.55;;
23720;SDS011;42950;52.134;5.578;2023-06-14T02:47:04;8.10;;;2.88;;
23720;SDS011;42950;52.134;5.578;2023-06-14T02:49:29;4.80;;;2.78;;
23720;SDS011;42950;52.134;5.578;2023-06-14T02:51:55;13.32;;;3.25;;
23720;SDS011;42950;52.134;5.578;2023-06-14T02:54:21;5.68;;;2.70;;
23720;SDS011;42950;52.134;5.578;2023-06-14T02:56:47;4.57;;;2.70;;
23720;SDS011;42950;52.134;5.578;2023-06-14T02:59:12;3.25;;;2.38;;
23720;SDS011;42950;52.134;5.578;2023-06-14T03:01:39;4.28;;;2.50;;
23720;SDS011;42950;52.134;5.578;2023-06-14T03:04:06;5.38;;;2.78;;
23720;SDS011;42950;52.134;5.578;2023-06-14T03:06:33;5.93;;;3.00;;
23720;SDS011;42950;52.134;5.578;2023-06-14T03:09:00;8.25;;;2.50;;
23720;SDS011;42950;52.134;5.578;2023-06-14T03:11:29;5.25;;;2.70;;
23720;SDS011;42950;52.134;5.578;2023-06-14T03:13:55;8.85;;;2.60;;
23720;SDS011;42950;52.134;5.578;2023-06-14T03:16:21;7.63;;;2.72;;
23720;SDS011;42950;52.134;5.578;2023-06-14T03:18:52;10.95;;;2.63;;
23720;SDS011;42950;52.134;5.578;2023-06-14T03:21:18;4.32;;;2.60;;
23720;SDS011;42950;52.134;5.578;2023-06-14T03:23:45;8.15;;;2.80;;
23720;SDS011;42950;52.134;5.578;2023-06-14T03:26:11;5.18;;;2.47;;
23720;SDS011;42950;52.134;5.578;2023-06-14T03:28:43;6.95;;;2.80;;
23720;SDS011;42950;52.134;5.578;2023-06-14T03:31:10;6.82;;;2.97;;
23720;SDS011;42950;52.134;5.578;2023-06-14T03:33:36;6.95;;;3.05;;
23720;SDS011;42950;52.134;5.578;2023-06-14T03:36:02;3.80;;;2.45;;
23720;SDS011;42950;52.134;5.578;2023-06-14T03:38:28;5.20;;;2.60;;
23720;SDS011;42950;52.134;5.578;2023-06-14T03:40:54;7.20;;;2.70;;
23720;SDS011;42950;52.134;5.578;2023-06-14T03:43:20;4.57;;;2.83;;
23720;SDS011;42950;52.134;5.578;2023-06-14T03:45:45;6.55;;;2.78;;
23720;SDS011;42950;52.134;5.578;2023-06-14T03:48:11;4.88;;;2.70;;
23720;SDS011;42950;52.134;5.578;2023-06-14T03:50:37;4.03;;;2.60;;
23720;SDS011;42950;52.134;5.578;2023-06-14T03:53:06;5.50;;;2.55;;
23720;SDS011;42950;52.134;5.578;2023-06-14T03:55:32;5.97;;;3.00;;
23720;SDS011;42950;52.134;5.578;2023-06-14T03:57:58;3.42;;;2.40;;
23720;SDS011;42950;52.134;5.578;2023-06-14T04:00:24;7.40;;;2.67;;
23720;SDS011;42950;52.134;5.578;2023-06-14T04:02:52;5.53;;;2.78;;
23720;SDS011;42950;52.134;5.578;2023-06-14T04:05:20;6.78;;;3.17;;
23720;SDS011;42950;52.134;5.578;2023-06-14T04:07:46;5.78;;;3.05;;
23720;SDS011;42950;52.134;5.578;2023-06-14T04:10:13;3.72;;;2.38;;
23720;SDS011;42950;52.134;5.578;2023-06-14T04:12:40;8.65;;;2.80;;
23720;SDS011;42950;52.134;5.578;2023-06-14T04:15:06;5.72;;;2.53;;
23720;SDS011;42950;52.134;5.578;2023-06-14T04:17:33;5.38;;;3.00;;
23720;SDS011;42950;52.134;5.578;2023-06-14T04:19:59;5.18;;;2.55;;
23720;SDS011;42950;52.134;5.578;2023-06-14T04:22:26;9.05;;;3.15;;
23720;SDS011;42950;52.134;5.578;2023-06-14T04:24:56;6.30;;;2.92;;
23720;SDS011;42950;52.134;5.578;2023-06-14T04:27:22;9.13;;;2.75;;
23720;SDS011;42950;52.134;5.578;2023-06-14T04:29:53;3.92;;;2.70;;
23720;SDS011;42950;52.134;5.578;2023-06-14T04:32:24;9.57;;;3.13;;
23720;SDS011;42950;52.134;5.578;2023-06-14T04:34:54;5.88;;;2.30;;
23720;SDS011;42950;52.134;5.578;2023-06-14T04:37:22;7.55;;;3.00;;
23720;SDS011;42950;52.134;5.578;2023-06-14T04:39:49;4.80;;;2.63;;
23720;SDS011;42950;52.134;5.578;2023-06-14T04:42:16;4.07;;;2.65;;
23720;SDS011;42950;52.134;5.578;2023-06-14T04:44:42;7.43;;;2.60;;
23720;SDS011;42950;52.134;5.578;2023-06-14T04:47:09;4.15;;;2.85;;
23720;SDS011;42950;52.134;5.578;2023-06-14T04:49:36;7.95;;;2.67;;
23720;SDS011;42950;52.134;5.578;2023-06-14T04:52:02;5.38;;;2.53;;
23720;SDS011;42950;52.134;5.578;2023-06-14T04:54:29;5.60;;;2.85;;
23720;SDS011;42950;52.134;5.578;2023-06-14T04:56:57;7.90;;;2.85;;
23720;SDS011;42950;52.134;5.578;2023-06-14T04:59:23;4.47;;;2.65;;
23720;SDS011;42950;52.134;5.578;2023-06-14T05:01:49;7.07;;;2.65;;
23720;SDS011;42950;52.134;5.578;2023-06-14T05:04:18;10.50;;;3.00;;
23720;SDS011;42950;52.134;5.578;2023-06-14T05:06:45;8.90;;;2.97;;
23720;SDS011;42950;52.134;5.578;2023-06-14T05:09:13;5.63;;;2.80;;
23720;SDS011;42950;52.134;5.578;2023-06-14T05:11:40;8.20;;;2.80;;
23720;SDS011;42950;52.134;5.578;2023-06-14T05:14:12;4.35;;;2.63;;
23720;SDS011;42950;52.134;5.578;2023-06-14T05:16:39;5.75;;;2.60;;
23720;SDS011;42950;52.134;5.578;2023-06-14T05:19:05;5.97;;;2.88;;
23720;SDS011;42950;52.134;5.578;2023-06-14T05:21:32;3.17;;;2.30;;
23720;SDS011;42950;52.134;5.578;2023-06-14T05:23:59;7.18;;;2.90;;
23720;SDS011;42950;52.134;5.578;2023-06-14T05:26:26;5.32;;;2.53;;
23720;SDS011;42950;52.134;5.578;2023-06-14T05:28:57;6.13;;;2.45;;
23720;SDS011;42950;52.134;5.578;2023-06-14T05:31:25;4.57;;;2.72;;
23720;SDS011;42950;52.134;5.578;2023-06-14T05:33:52;7.95;;;2.67;;
23720;SDS011;42950;52.134;5.578;2023-06-14T05:36:18;3.78;;;2.30;;
23720;SDS011;42950;52.134;5.578;2023-06-14T05:38:45;3.50;;;2.58;;
23720;SDS011;42950;52.134;5.578;2023-06-14T05:41:10;9.65;;;2.58;;
23720;SDS011;42950;52.134;5.578;2023-06-14T05:43:36;4.43;;;2.60;;
23720;SDS011;42950;52.134;5.578;2023-06-14T05:46:02;10.48;;;3.08;;
23720;SDS011;42950;52.134;5.578;2023-06-14T05:48:28;8.65;;;2.75;;
23720;SDS011;42950;52.134;5.578;2023-06-14T05:50:54;3.97;;;2.60;;
23720;SDS011;42950;52.134;5.578;2023-06-14T05:53:19;5.90;;;2.47;;
23720;SDS011;42950;52.134;5.578;2023-06-14T05:55:45;8.63;;;2.83;;
23720;SDS011;42950;52.134;5.578;2023-06-14T05:58:11;6.35;;;2.45;;
23720;SDS011;42950;52.134;5.578;2023-06-14T06:00:38;8.00;;;2.75;;
23720;SDS011;42950;52.134;5.578;2023-06-14T06:03:06;7.40;;;2.67;;
23720;SDS011;42950;52.134;5.578;2023-06-14T06:05:34;6.38;;;2.65;;
23720;SDS011;42950;52.134;5.578;2023-06-14T06:07:59;5.28;;;2.80;;
23720;SDS011;42950;52.134;5.578;2023-06-14T06:10:25;4.15;;;2.35;;
23720;SDS011;42950;52.134;5.578;2023-06-14T06:12:52;6.63;;;2.40;;
23720;SDS011;42950;52.134;5.578;2023-06-14T06:15:19;5.50;;;2.60;;
23720;SDS011;42950;52.134;5.578;2023-06-14T06:17:46;8.35;;;2.78;;
23720;SDS011;42950;52.134;5.578;2023-06-14T06:20:12;5.78;;;2.47;;
23720;SDS011;42950;52.134;5.578;2023-06-14T06:22:38;5.68;;;2.58;;
23720;SDS011;42950;52.134;5.578;2023-06-14T06:25:04;6.65;;;2.40;;
23720;SDS011;42950;52.134;5.578;2023-06-14T06:27:31;4.30;;;2.30;;
23720;SDS011;42950;52.134;5.578;2023-06-14T06:29:57;6.25;;;2.97;;
23720;SDS011;42950;52.134;5.578;2023-06-14T06:32:24;6.57;;;2.75;;
23720;SDS011;42950;52.134;5.578;2023-06-14T06:34:50;5.47;;;2.50;;
23720;SDS011;42950;52.134;5.578;2023-06-14T06:37:17;3.97;;;2.78;;
23720;SDS011;42950;52.134;5.578;2023-06-14T06:39:43;5.72;;;2.58;;
23720;SDS011;42950;52.134;5.578;2023-06-14T06:42:08;5.30;;;2.63;;
23720;SDS011;42950;52.134;5.578;2023-06-14T06:44:34;6.93;;;2.30;;
23720;SDS011;42950;52.134;5.578;2023-06-14T06:47:00;4.53;;;2.50;;
23720;SDS011;42950;52.134;5.578;2023-06-14T06:49:26;6.95;;;2.70;;
23720;SDS011;42950;52.134;5.578;2023-06-14T06:52:06;5.72;;;2.38;;
23720;SDS011;42950;52.134;5.578;2023-06-14T06:54:32;5.05;;;2.42;;
23720;SDS011;42950;52.134;5.578;2023-06-14T06:56:59;9.65;;;2.50;;
23720;SDS011;42950;52.134;5.578;2023-06-14T06:59:26;3.42;;;2.50;;
23720;SDS011;42950;52.134;5.578;2023-06-14T07:01:52;7.13;;;2.33;;
23720;SDS011;42950;52.134;5.578;2023-06-14T07:04:17;3.60;;;2.40;;
23720;SDS011;42950;52.134;5.578;2023-06-14T07:06:43;5.20;;;2.75;;
23720;SDS011;42950;52.134;5.578;2023-06-14T07:09:09;8.82;;;2.60;;
23720;SDS011;42950;52.134;5.578;2023-06-14T07:11:41;5.85;;;2.95;;
23720;SDS011;42950;52.134;5.578;2023-06-14T07:14:08;4.75;;;2.20;;
23720;SDS011;42950;52.134;5.578;2023-06-14T07:16:34;3.78;;;2.38;;
23720;SDS011;42950;52.134;5.578;2023-06-14T07:19:01;3.58;;;2.17;;
23720;SDS011;42950;52.134;5.578;2023-06-14T07:21:27;6.35;;;2.20;;
23720;SDS011;42950;52.134;5.578;2023-06-14T07:23:53;7.78;;;2.25;;
23720;SDS011;42950;52.134;5.578;2023-06-14T07:26:20;6.05;;;1.98;;
23720;SDS011;42950;52.134;5.578;2023-06-14T07:28:46;3.53;;;2.20;;
23720;SDS011;42950;52.134;5.578;2023-06-14T07:31:14;4.47;;;1.90;;
23720;SDS011;42950;52.134;5.578;2023-06-14T07:33:40;10.80;;;2.30;;
23720;SDS011;42950;52.134;5.578;2023-06-14T07:36:07;5.57;;;1.85;;
23720;SDS011;42950;52.134;5.578;2023-06-14T07:38:33;2.92;;;1.67;;
23720;SDS011;42950;52.134;5.578;2023-06-14T07:41:00;3.97;;;1.98;;
23720;SDS011;42950;52.134;5.578;2023-06-14T07:43:26;12.93;;;1.92;;
23720;SDS011;42950;52.134;5.578;2023-06-14T07:45:52;4.30;;;1.95;;
23720;SDS011;42950;52.134;5.578;2023-06-14T07:48:18;3.30;;;1.80;;
23720;SDS011;42950;52.134;5.578;2023-06-14T07:50:46;4.05;;;1.77;;
23720;SDS011;42950;52.134;5.578;2023-06-14T07:53:12;4.80;;;1.60;;
23720;SDS011;42950;52.134;5.578;2023-06-14T07:55:38;4.32;;;1.60;;
23720;SDS011;42950;52.134;5.578;2023-06-14T07:58:04;4.20;;;1.58;;
23720;SDS011;42950;52.134;5.578;2023-06-14T08:00:33;4.80;;;1.75;;
23720;SDS011;42950;52.134;5.578;2023-06-14T08:02:59;4.50;;;1.58;;
23720;SDS011;42950;52.134;5.578;2023-06-14T08:05:26;4.70;;;1.27;;
23720;SDS011;42950;52.134;5.578;2023-06-14T08:07:52;2.65;;;1.50;;
23720;SDS011;42950;52.134;5.578;2023-06-14T08:10:18;4.15;;;1.30;;
23720;SDS011;42950;52.134;5.578;2023-06-14T08:12:44;5.72;;;1.27;;
23720;SDS011;42950;52.134;5.578;2023-06-14T08:15:10;3.28;;;1.25;;
23720;SDS011;42950;52.134;5.578;2023-06-14T08:17:36;1.52;;;1.42;;
23720;SDS011;42950;52.134;5.578;2023-06-14T08:20:02;5.90;;;1.38;;
23720;SDS011;42950;52.134;5.578;2023-06-14T08:22:30;3.20;;;1.17;;
23720;SDS011;42950;52.134;5.578;2023-06-14T08:24:58;2.65;;;1.50;;
23720;SDS011;42950;52.134;5.578;2023-06-14T08:27:25;2.15;;;1.25;;
23720;SDS011;42950;52.134;5.578;2023-06-14T08:29:50;2.65;;;1.48;;
23720;SDS011;42950;52.134;5.578;2023-06-14T08:32:16;1.52;;;1.20;;
23720;SDS011;42950;52.134;5.578;2023-06-14T08:34:42;3.72;;;1.40;;
23720;SDS011;42950;52.134;5.578;2023-06-14T08:37:07;1.83;;;1.15;;
23720;SDS011;42950;52.134;5.578;2023-06-14T08:39:33;1.17;;;1.10;;
23720;SDS011;42950;52.134;5.578;2023-06-14T08:42:01;7.22;;;1.40;;
23720;SDS011;42950;52.134;5.578;2023-06-14T08:44:28;2.65;;;1.20;;
23720;SDS011;42950;52.134;5.578;2023-06-14T08:47:00;1.90;;;1.20;;
23720;SDS011;42950;52.134;5.578;2023-06-14T08:49:28;1.30;;;1.10;;
23720;SDS011;42950;52.134;5.578;2023-06-14T08:52:00;2.80;;;1.30;;
23720;SDS011;42950;52.134;5.578;2023-06-14T08:54:27;2.20;;;1.40;;
23720;SDS011;42950;52.134;5.578;2023-06-14T08:56:57;3.38;;;1.45;;
23720;SDS011;42950;52.134;5.578;2023-06-14T08:59:24;3.65;;;1.52;;
23720;SDS011;42950;52.134;5.578;2023-06-14T09:01:51;2.35;;;1.20;;
23720;SDS011;42950;52.134;5.578;2023-06-14T09:04:20;3.20;;;1.40;;
23720;SDS011;42950;52.134;5.578;2023-06-14T09:06:47;1.30;;;1.20;;
23720;SDS011;42950;52.134;5.578;2023-06-14T09:09:18;2.53;;;1.48;;
23720;SDS011;42950;52.134;5.578;2023-06-14T09:11:51;4.35;;;1.30;;
23720;SDS011;42950;52.134;5.578;2023-06-14T09:14:20;1.23;;;1.10;;
23720;SDS011;42950;52.134;5.578;2023-06-14T09:16:46;3.17;;;1.17;;
23720;SDS011;42950;52.134;5.578;2023-06-14T09:19:22;1.95;;;1.13;;
23720;SDS011;42950;52.134;5.578;2023-06-14T09:21:48;1.35;;;1.10;;
23720;SDS011;42950;52.134;5.578;2023-06-14T09:24:15;2.92;;;1.65;;
23720;SDS011;42950;52.134;5.578;2023-06-14T09:26:40;2.88;;;1.00;;
23720;SDS011;42950;52.134;5.578;2023-06-14T09:29:06;2.80;;;1.00;;
23720;SDS011;42950;52.134;5.578;2023-06-14T09:31:32;3.00;;;1.13;;
23720;SDS011;42950;52.134;5.578;2023-06-14T09:33:58;3.35;;;1.30;;
23720;SDS011;42950;52.134;5.578;2023-06-14T09:36:26;2.08;;;1.10;;
23720;SDS011;42950;52.134;5.578;2023-06-14T09:38:53;1.63;;;1.30;;
23720;SDS011;42950;52.134;5.578;2023-06-14T09:41:35;3.90;;;1.63;;
23720;SDS011;42950;52.134;5.578;2023-06-14T09:44:04;2.22;;;1.25;;
23720;SDS011;42950;52.134;5.578;2023-06-14T09:46:33;2.00;;;1.30;;
23720;SDS011;42950;52.134;5.578;2023-06-14T09:48:59;3.25;;;1.20;;
23720;SDS011;42950;52.134;5.578;2023-06-14T09:51:27;5.88;;;1.63;;
23720;SDS011;42950;52.134;5.578;2023-06-14T09:53:56;2.20;;;1.20;;
23720;SDS011;42950;52.134;5.578;2023-06-14T09:56:29;2.42;;;1.33;;
23720;SDS011;42950;52.134;5.578;2023-06-14T09:58:56;3.83;;;1.10;;
23720;SDS011;42950;52.134;5.578;2023-06-14T10:01:26;3.28;;;1.00;;
23720;SDS011;42950;52.134;5.578;2023-06-14T10:04:04;2.63;;;1.00;;
23720;SDS011;42950;52.134;5.578;2023-06-14T10:06:32;4.63;;;1.13;;
23720;SDS011;42950;52.134;5.578;2023-06-14T10:09:03;2.83;;;1.00;;
23720;SDS011;42950;52.134;5.578;2023-06-14T10:11:30;5.18;;;1.40;;
23720;SDS011;42950;52.134;5.578;2023-06-14T10:13:57;4.00;;;1.00;;
23720;SDS011;42950;52.134;5.578;2023-06-14T10:21:48;4.70;;;1.30;;
23720;SDS011;42950;52.134;5.578;2023-06-14T10:24:42;2.58;;;1.40;;
23720;SDS011;42950;52.134;5.578;2023-06-14T10:27:08;7.50;;;1.52;;
23720;SDS011;42950;52.134;5.578;2023-06-14T10:29:35;3.97;;;1.40;;
23720;SDS011;42950;52.134;5.578;2023-06-14T10:32:27;4.38;;;1.20;;
23720;SDS011;42950;52.134;5.578;2023-06-14T10:34:58;4.25;;;1.35;;
23720;SDS011;42950;52.134;5.578;2023-06-14T10:37:31;2.70;;;1.13;;
23720;SDS011;42950;52.134;5.578;2023-06-14T10:39:57;2.03;;;1.10;;
23720;SDS011;42950;52.134;5.578;2023-06-14T10:42:27;8.50;;;1.10;;
23720;SDS011;42950;52.134;5.578;2023-06-14T10:44:57;1.60;;;1.10;;
23720;SDS011;42950;52.134;5.578;2023-06-14T10:50:04;3.45;;;1.33;;
23720;SDS011;42950;52.134;5.578;2023-06-14T10:52:41;2.47;;;1.27;;
23720;SDS011;42950;52.134;5.578;2023-06-14T10:57:40;2.35;;;1.33;;
23720;SDS011;42950;52.134;5.578;2023-06-14T11:00:08;6.30;;;1.30;;
23720;SDS011;42950;52.134;5.578;2023-06-14T11:05:18;1.17;;;1.02;;
23720;SDS011;42950;52.134;5.578;2023-06-14T11:10:44;5.43;;;1.20;;
23720;SDS011;42950;52.134;5.578;2023-06-14T11:13:13;5.38;;;1.20;;
23720;SDS011;42950;52.134;5.578;2023-06-14T11:15:45;4.22;;;1.17;;
23720;SDS011;42950;52.134;5.578;2023-06-14T11:18:14;3.50;;;1.30;;
23720;SDS011;42950;52.134;5.578;2023-06-14T11:20:41;6.20;;;1.60;;
23720;SDS011;42950;52.134;5.578;2023-06-14T11:23:07;5.47;;;1.38;;
23720;SDS011;42950;52.134;5.578;2023-06-14T11:25:33;1.33;;;0.98;;
23720;SDS011;42950;52.134;5.578;2023-06-14T11:27:59;2.70;;;1.38;;
23720;SDS011;42950;52.134;5.578;2023-06-14T11:30:26;2.05;;;1.17;;
23720;SDS011;42950;52.134;5.578;2023-06-14T11:32:52;1.75;;;1.23;;
23720;SDS011;42950;52.134;5.578;2023-06-14T11:35:22;5.15;;;1.23;;
23720;SDS011;42950;52.134;5.578;2023-06-14T11:37:53;2.25;;;1.10;;
23720;SDS011;42950;52.134;5.578;2023-06-14T11:40:22;6.82;;;1.33;;
23720;SDS011;42950;52.134;5.578;2023-06-14T11:42:49;4.00;;;1.17;;
23720;SDS011;42950;52.134;5.578;2023-06-14T11:45:15;4.03;;;1.27;;
23720;SDS011;42950;52.134;5.578;2023-06-14T11:47:41;2.28;;;1.13;;
23720;SDS011;42950;52.134;5.578;2023-06-14T11:50:07;1.75;;;1.20;;
23720;SDS011;42950;52.134;5.578;2023-06-14T11:52:36;4.40;;;1.23;;
23720;SDS011;42950;52.134;5.578;2023-06-14T11:55:03;3.22;;;1.30;;
23720;SDS011;42950;52.134;5.578;2023-06-14T11:57:30;5.03;;;1.20;;
23720;SDS011;42950;52.134;5.578;2023-06-14T12:00:00;3.83;;;1.10;;
23720;SDS011;42950;52.134;5.578;2023-06-14T12:02:31;2.10;;;1.15;;
23720;SDS011;42950;52.134;5.578;2023-06-14T12:05:03;1.20;;;1.10;;
23720;SDS011;42950;52.134;5.578;2023-06-14T12:07:31;4.85;;;1.30;;
23720;SDS011;42950;52.134;5.578;2023-06-14T12:12:26;8.60;;;1.38;;
23720;SDS011;42950;52.134;5.578;2023-06-14T12:14:52;5.47;;;1.20;;
23720;SDS011;42950;52.134;5.578;2023-06-14T12:17:19;1.13;;;1.05;;
23720;SDS011;42950;52.134;5.578;2023-06-14T12:19:45;5.00;;;1.30;;
23720;SDS011;42950;52.134;5.578;2023-06-14T12:22:14;5.90;;;1.10;;
23720;SDS011;42950;52.134;5.578;2023-06-14T12:24:44;3.97;;;1.10;;
23720;SDS011;42950;52.134;5.578;2023-06-14T12:27:10;9.80;;;1.40;;
23720;SDS011;42950;52.134;5.578;2023-06-14T12:29:45;5.93;;;1.30;;
23720;SDS011;42950;52.134;5.578;2023-06-14T12:32:10;2.88;;;1.23;;
23720;SDS011;42950;52.134;5.578;2023-06-14T12:34:37;6.32;;;1.55;;
23720;SDS011;42950;52.134;5.578;2023-06-14T12:37:02;1.90;;;1.10;;
23720;SDS011;42950;52.134;5.578;2023-06-14T12:39:29;1.73;;;1.20;;
23720;SDS011;42950;52.134;5.578;2023-06-14T12:41:56;3.15;;;0.90;;
23720;SDS011;42950;52.134;5.578;2023-06-14T12:44:22;1.13;;;1.00;;
23720;SDS011;42950;52.134;5.578;2023-06-14T12:46:48;1.10;;;0.85;;
23720;SDS011;42950;52.134;5.578;2023-06-14T12:49:16;2.70;;;1.33;;
23720;SDS011;42950;52.134;5.578;2023-06-14T12:51:42;3.10;;;1.45;;
23720;SDS011;42950;52.134;5.578;2023-06-14T12:54:08;4.78;;;1.10;;
23720;SDS011;42950;52.134;5.578;2023-06-14T12:56:33;1.55;;;1.40;;
23720;SDS011;42950;52.134;5.578;2023-06-14T12:58:59;5.03;;;1.52;;
23720;SDS011;42950;52.134;5.578;2023-06-14T13:03:55;5.45;;;1.27;;
23720;SDS011;42950;52.134;5.578;2023-06-14T13:06:21;8.68;;;1.35;;
23720;SDS011;42950;52.134;5.578;2023-06-14T13:08:47;2.33;;;1.42;;
23720;SDS011;42950;52.134;5.578;2023-06-14T13:11:13;3.10;;;1.27;;
23720;SDS011;42950;52.134;5.578;2023-06-14T13:13:39;6.85;;;1.50;;
23720;SDS011;42950;52.134;5.578;2023-06-14T13:16:06;5.05;;;1.20;;
23720;SDS011;42950;52.134;5.578;2023-06-14T13:18:31;3.47;;;1.25;;
23720;SDS011;42950;52.134;5.578;2023-06-14T13:20:57;3.08;;;1.20;;
23720;SDS011;42950;52.134;5.578;2023-06-14T13:23:22;4.20;;;1.50;;
23720;SDS011;42950;52.134;5.578;2023-06-14T13:25:48;5.25;;;0.95;;
23720;SDS011;42950;52.134;5.578;2023-06-14T13:28:17;3.78;;;1.33;;
23720;SDS011;42950;52.134;5.578;2023-06-14T13:30:45;4.53;;;1.13;;
23720;SDS011;42950;52.134;5.578;2023-06-14T13:33:11;2.67;;;1.08;;
23720;SDS011;42950;52.134;5.578;2023-06-14T13:35:38;2.88;;;1.00;;
23720;SDS011;42950;52.134;5.578;2023-06-14T13:38:03;5.03;;;1.20;;
23720;SDS011;42950;52.134;5.578;2023-06-14T13:40:29;7.60;;;1.20;;
23720;SDS011;42950;52.134;5.578;2023-06-14T13:42:56;4.03;;;1.20;;
23720;SDS011;42950;52.134;5.578;2023-06-14T13:45:21;5.78;;;1.20;;
23720;SDS011;42950;52.134;5.578;2023-06-14T13:47:48;1.58;;;0.93;;
23720;SDS011;42950;52.134;5.578;2023-06-14T13:50:14;4.55;;;1.10;;
23720;SDS011;42950;52.134;5.578;2023-06-14T13:52:41;5.68;;;1.08;;
23720;SDS011;42950;52.134;5.578;2023-06-14T13:55:07;3.80;;;0.88;;
23720;SDS011;42950;52.134;5.578;2023-06-14T13:57:33;1.67;;;1.00;;
23720;SDS011;42950;52.134;5.578;2023-06-14T13:59:58;3.05;;;0.90;;
23720;SDS011;42950;52.134;5.578;2023-06-14T14:02:27;3.83;;;1.00;;
23720;SDS011;42950;52.134;5.578;2023-06-14T14:04:54;3.30;;;0.85;;
23720;SDS011;42950;52.134;5.578;2023-06-14T14:07:22;3.17;;;0.98;;
23720;SDS011;42950;52.134;5.578;2023-06-14T14:09:48;3.72;;;1.00;;
23720;SDS011;42950;52.134;5.578;2023-06-14T14:12:16;2.88;;;0.90;;
23720;SDS011;42950;52.134;5.578;2023-06-14T14:14:42;3.95;;;1.08;;
23720;SDS011;42950;52.134;5.578;2023-06-14T14:17:09;4.88;;;0.73;;
23720;SDS011;42950;52.134;5.578;2023-06-14T14:19:34;3.20;;;0.90;;
23720;SDS011;42950;52.134;5.578;2023-06-14T14:22:00;3.50;;;0.90;;
23720;SDS011;42950;52.134;5.578;2023-06-14T14:24:26;3.90;;;0.90;;
23720;SDS011;42950;52.134;5.578;2023-06-14T14:26:52;1.38;;;0.80;;
23720;SDS011;42950;52.134;5.578;2023-06-14T14:29:19;4.55;;;0.80;;
23720;SDS011;42950;52.134;5.578;2023-06-14T14:31:45;4.85;;;0.90;;
23720;SDS011;42950;52.134;5.578;2023-06-14T14:34:10;3.75;;;1.02;;
23720;SDS011;42950;52.134;5.578;2023-06-14T14:36:36;2.13;;;0.90;;
23720;SDS011;42950;52.134;5.578;2023-06-14T14:39:03;1.50;;;0.88;;
23720;SDS011;42950;52.134;5.578;2023-06-14T14:41:29;4.72;;;0.98;;
23720;SDS011;42950;52.134;5.578;2023-06-14T14:43:54;2.67;;;0.80;;
23720;SDS011;42950;52.134;5.578;2023-06-14T14:46:20;1.50;;;0.70;;
23720;SDS011;42950;52.134;5.578;2023-06-14T14:48:46;3.25;;;0.90;;
23720;SDS011;42950;52.134;5.578;2023-06-14T14:51:11;4.82;;;0.90;;
23720;SDS011;42950;52.134;5.578;2023-06-14T14:53:37;3.70;;;0.80;;
23720;SDS011;42950;52.134;5.578;2023-06-14T14:56:02;4.22;;;0.80;;
23720;SDS011;42950;52.134;5.578;2023-06-14T14:58:28;2.47;;;1.00;;
23720;SDS011;42950;52.134;5.578;2023-06-14T15:00:54;4.97;;;0.90;;
23720;SDS011;42950;52.134;5.578;2023-06-14T15:03:19;2.03;;;0.95;;
23720;SDS011;42950;52.134;5.578;2023-06-14T15:05:46;4.45;;;0.77;;
23720;SDS011;42950;52.134;5.578;2023-06-14T15:08:12;3.40;;;1.10;;
23720;SDS011;42950;52.134;5.578;2023-06-14T15:10:38;1.23;;;0.80;;
23720;SDS011;42950;52.134;5.578;2023-06-14T15:13:08;3.55;;;1.00;;
23720;SDS011;42950;52.134;5.578;2023-06-14T15:15:35;3.45;;;1.08;;